Flight Track Log - Related Links

Times and Time Zones

All times are in EDT time to prevent confusion due to time zone crossing. See the CTL17 flight status page for this flight to view local times or setup timezone preferences in your user account.


Time Position Orientation Groundspeed Altitude Reporting Facility
EDT Latitude Longitude Course Direction KTS MPH feet Rate Location/Type
Thu 05:27:00 PM 42.1939 -83.5764 233° Southwest 142 163 2,000  Level Cleveland Center
Thu 05:28:01 PM 42.1561 -83.5942 199° South 150 173 2,600 541 Climbing Cleveland Center
Thu 05:29:02 PM 42.1142 -83.5978 184° South 156 180 3,100 188 Climbing Cleveland Center
Thu 05:30:09 PM 42.0711 -83.5678 153° Southeast 168 193 3,000 -47 Descending Cleveland Center
Thu 05:31:10 PM 42.0497 -83.5081 116° Southeast 168 193 3,000 49 Level Cleveland Center
Thu 05:32:11 PM 42.0367 -83.4489 107° East 165 190 3,100  Climbing Cleveland Center
Thu 05:33:12 PM 42.0278 -83.3842 100° East 166 191 3,000 -52 Descending Cleveland Center
Thu 05:34:07 PM 42.0144 -83.3361 110° East 167 192 3,000  Level Cleveland Center
Thu 05:35:02 PM 41.9947 -83.2850 117° Southeast 167 192 3,000 47 Level Cleveland Center
Thu 05:36:15 PM 41.9714 -83.2142 114° Southeast 169 194 3,100 271 Climbing Cleveland Center
Thu 05:37:15 PM 41.9561 -83.1575 110° East 169 194 3,600 550 Climbing Cleveland Center
Thu 05:38:04 PM 41.9425 -83.1067 110° East 167 192 4,100 522 Climbing Cleveland Center
Thu 05:38:47 PM 41.9308 -83.0700 113° Southeast 169 194 4,400 462 Climbing Cleveland Center
Thu 05:39:48 PM 41.9156 -83.0108 109° East 168 193 4,900 298 Climbing Cleveland Center
Thu 05:40:48 PM 41.8958 -82.9514 114° Southeast 171 197 5,000 62 Climbing Cleveland Center
Thu 05:41:25 PM 41.8822 -82.9092 113° Southeast 180 207 5,000  Level Cleveland Center
Thu 05:42:25 PM 41.8647 -82.8444 110° East 179 206 5,000  Level Cleveland Center
Thu 05:43:44 PM 41.8392 -82.7683 114° Southeast 175 201 5,000  Level Cleveland Center
Thu 05:44:27 PM 41.8294 -82.7206 105° East 177 204 5,000  Level Cleveland Center
Thu 05:45:28 PM 41.8161 -82.6617 107° East 176 203 5,000  Level Cleveland Center
Thu 05:46:29 PM 41.8006 -82.5942 107° East 178 205 5,000  Level Cleveland Center
Thu 05:47:35 PM 41.7872 -82.5242 104° East 178 205 5,000  Level Cleveland Center
Thu 05:48:36 PM 41.7714 -82.4625 109° East 179 206 5,000  Level Cleveland Center
Thu 05:49:37 PM 41.7558 -82.3981 108° East 177 204 5,000  Level Cleveland Center
Thu 05:50:38 PM 41.7422 -82.3364 106° East 178 205 5,000  Level Cleveland Center
Thu 05:51:33 PM 41.7286 -82.2747 106° East 179 206 5,000 -209 Level Cleveland Center
Thu 05:52:33 PM 41.7128 -82.2075 107° East 185 213 4,600 -520 Descending Cleveland Center
Thu 05:53:40 PM 41.6972 -82.1322 105° East 192 221 3,900 -563 Descending Cleveland Center
Thu 05:54:41 PM 41.6836 -82.0650 105° East 190 219 3,400 -541 Descending Cleveland Center
Thu 05:55:42 PM 41.6656 -82.0006 111° Southeast 182 209 2,800 -492 Descending Cleveland Center
Thu 05:56:43 PM 41.6517 -81.9364 106° East 177 204 2,400 -446 Descending Cleveland Center
Thu 05:57:43 PM 41.6381 -81.8722 106° East 171 197 1,900 -248 Descending Cleveland Center
Thu 05:58:44 PM 41.6031 -81.8272 136° Southeast 162 186 1,900 -148 Level Cleveland Center
Thu 05:59:45 PM 41.5722 -81.7878 136° Southeast 161 185 1,600 -188 Descending Cleveland Center
Thu 06:00:52 PM 41.5392 -81.7483 138° Southeast 149 171 1,500 -281 Descending Cleveland Center
Thu 06:01:53 PM 41.5103 -81.7144 139° Southeast 119 137 1,000 -492 Descending Cleveland Center
Thu 06:03:00 PM 41.5175 -81.6833 108° East  Level Estimated

Login

Don't have an account? Register now (free) for customized features, flight alerts, and more!